Cocalinho, Brazil
Current Conditions -  °F | °C
As of 6:00 PM on Thursday 27 Nov 2014 (Local Time) from SBAN Reporting Station
Rain Showers Rain Showers  
Wind Chill: 75°   Ceiling: Unl
Heat Index: 75°   Visibility: 6mi
Dew Point: 66°   Wind: 3mph
Humidity: 73%   Direction: 300°WNW
Pressure: 29.97"   Gusts: NA
Location:  14.4°S, 51°W
Report Text: SBAN 272000Z 30003KT 9999 VCSH SCT030 FEW035TCU 24/19 Q1015
Loading
Personal Weather Stations






























Interactive Weather Map New forecast layout! Learn more

10-Day Weather Forecast

Advertisements
Track Severe Weather on mobile